Time;durP1;ratioP1;P1;durP2;ratioP2;P2;SDS_P1;SDS_P2;PMS_P1;PMS_P2;Temp;Humidity;BMP_temperature;BMP_pressure;BME280_temperature;BME280_humidity;BME280_pressure;Samples;Min_cycle;Max_cycle;Signal;HPM_P1;HPM_P2
2023/03/19 00:01:43;;;;;;;8.07;4.50;;;;;;;12.54;71.93;100100.88;5057520;28;20027;-68
2023/03/19 00:04:08;;;;;;;9.70;4.60;;;;;;;12.54;72.16;100100.88;5038379;28;20075;-68
2023/03/19 00:06:34;;;;;;;9.10;4.30;;;;;;;12.52;72.05;100099.13;5038443;28;20108;-68
2023/03/19 00:09:00;;;;;;;8.23;4.60;;;;;;;12.48;72.37;100095.69;5046370;28;20117;-68
2023/03/19 00:11:26;;;;;;;10.87;5.37;;;;;;;12.42;72.35;100096.66;5043629;28;20573;-66
2023/03/19 00:14:02;;;;;;;8.95;5.18;;;;;;;12.37;72.50;100103.78;5038660;28;20028;-67
2023/03/19 00:16:27;;;;;;;11.80;5.63;;;;;;;12.34;72.65;100098.53;5035746;28;20041;-67
2023/03/19 00:18:53;;;;;;;17.15;7.70;;;;;;;12.33;72.97;100102.94;5038136;28;20029;-67
2023/03/19 00:21:20;;;;;;;19.05;10.48;;;;;;;12.32;72.61;100103.81;5038715;28;20544;-67
2023/03/19 00:23:45;;;;;;;19.80;9.93;;;;;;;12.31;72.96;100102.06;5038280;28;20029;-67
2023/03/19 00:26:11;;;;;;;16.60;8.70;;;;;;;12.28;73.40;100099.47;5038396;28;20025;-67
2023/03/19 00:28:37;;;;;;;15.00;7.55;;;;;;;12.25;73.02;100099.53;5038103;28;20033;-67
2023/03/19 00:31:08;;;;;;;14.23;7.73;;;;;;;12.24;73.15;100099.53;5038219;28;20021;-67
2023/03/19 00:33:33;;;;;;;13.68;7.18;;;;;;;12.27;73.11;100100.38;5036675;28;20112;-67
2023/03/19 00:35:59;;;;;;;12.03;6.10;;;;;;;12.28;73.08;100104.75;5038212;28;20114;-67
2023/03/19 00:38:27;;;;;;;13.60;5.97;;;;;;;12.30;72.65;100099.47;5037087;28;20091;-67
2023/03/19 00:40:52;;;;;;;12.80;6.53;;;;;;;12.30;73.00;100107.41;5053185;28;20020;-68
2023/03/19 00:43:18;;;;;;;9.50;4.97;;;;;;;12.29;72.83;100106.50;5037880;28;20021;-67
2023/03/19 00:45:43;;;;;;;12.40;7.33;;;;;;;12.27;72.78;100103.03;5036720;28;20022;-67
2023/03/19 00:48:08;;;;;;;11.30;6.80;;;;;;;12.25;73.15;100111.84;5037554;28;20033;-67
2023/03/19 00:50:34;;;;;;;13.85;7.15;;;;;;;12.21;73.37;100105.75;5037665;28;20021;-67
2023/03/19 00:53:00;;;;;;;11.70;7.23;;;;;;;12.18;73.20;100111.06;5037882;28;20025;-68
2023/03/19 00:55:26;;;;;;;11.85;7.43;;;;;;;12.17;73.39;100114.59;5035565;28;20028;-67
2023/03/19 00:57:51;;;;;;;12.18;6.65;;;;;;;12.17;73.10;100115.47;5037536;28;20021;-67
2023/03/19 01:00:18;;;;;;;12.13;6.30;;;;;;;12.20;73.17;100107.50;5045224;28;20025;-67
2023/03/19 01:02:43;;;;;;;9.18;3.42;;;;;;;12.20;73.12;100112.78;5057586;28;20067;-67
2023/03/19 01:05:09;;;;;;;6.97;3.27;;;;;;;12.18;72.94;100113.72;5043970;28;20494;-67
2023/03/19 01:07:34;;;;;;;5.97;3.05;;;;;;;12.16;73.09;100123.41;5051747;28;20100;-67
2023/03/19 01:10:00;;;;;;;5.57;3.10;;;;;;;12.11;73.16;100122.59;5042612;28;20176;-67
2023/03/19 01:12:25;;;;;;;7.70;2.83;;;;;;;12.07;73.16;100121.78;5037140;28;20425;-67
2023/03/19 01:14:51;;;;;;;5.60;2.30;;;;;;;12.06;73.04;100122.66;5037514;28;20677;-67
2023/03/19 01:17:16;;;;;;;6.72;2.00;;;;;;;12.04;73.05;100117.41;5037234;28;20521;-67
2023/03/19 01:19:42;;;;;;;6.23;1.73;;;;;;;12.01;72.62;100122.72;5037049;28;20033;-67
2023/03/19 01:22:08;;;;;;;7.50;1.73;;;;;;;11.97;72.77;100126.25;5037015;28;20036;-67
2023/03/19 01:24:33;;;;;;;6.00;1.40;;;;;;;11.96;72.72;100127.16;5037310;28;20084;-67
2023/03/19 01:26:59;;;;;;;4.73;1.80;;;;;;;11.92;72.84;100128.06;5037112;28;20506;-67
2023/03/19 01:29:25;;;;;;;6.68;2.50;;;;;;;11.88;72.95;100127.22;5037116;28;20498;-67
2023/03/19 01:31:50;;;;;;;7.23;1.83;;;;;;;11.90;72.81;100129.84;5036828;28;20025;-67
2023/03/19 01:34:16;;;;;;;5.77;1.60;;;;;;;11.92;73.08;100133.31;5035449;28;20260;-67
2023/03/19 01:36:41;;;;;;;5.57;1.30;;;;;;;11.95;72.82;100133.31;5036882;28;20075;-67
2023/03/19 01:39:07;;;;;;;5.40;1.30;;;;;;;11.97;72.60;100128.91;5036968;28;20032;-68
2023/03/19 01:41:32;;;;;;;5.65;1.20;;;;;;;11.98;72.94;100125.34;5036815;28;20021;-67
2023/03/19 01:43:58;;;;;;;4.87;1.10;;;;;;;11.95;72.70;100122.75;5036862;28;20025;-68
2023/03/19 01:46:26;;;;;;;5.63;1.03;;;;;;;11.86;72.90;100126.38;5035608;28;20026;-67
2023/03/19 01:48:54;;;;;;;5.18;0.80;;;;;;;11.84;73.07;100119.38;5036753;28;20029;-67
2023/03/19 01:51:25;;;;;;;4.28;0.85;;;;;;;11.84;72.73;100125.53;5036562;28;20072;-67
2023/03/19 01:53:57;;;;;;;6.57;0.90;;;;;;;11.84;72.92;100120.25;5036697;28;20049;-67
2023/03/19 01:56:36;;;;;;;4.38;0.77;;;;;;;11.84;72.98;100127.28;5036501;28;20033;-67
2023/03/19 01:59:08;;;;;;;4.07;0.90;;;;;;;11.85;73.16;100131.66;5037951;28;20032;-67
2023/03/19 02:01:39;;;;;;;3.47;0.80;;;;;;;11.84;72.97;100129.91;5052305;28;20020;-67
2023/03/19 02:04:06;;;;;;;3.92;0.60;;;;;;;11.83;73.60;100131.69;5042676;28;20022;-67
2023/03/19 02:06:32;;;;;;;6.73;0.90;;;;;;;11.81;73.17;100132.59;5036260;28;20401;-67
2023/03/19 02:08:58;;;;;;;4.38;0.85;;;;;;;11.81;73.16;100136.09;5036639;28;20085;-67
2023/03/19 02:11:25;;;;;;;3.47;0.60;;;;;;;11.81;73.38;100132.59;5035984;28;20042;-67
2023/03/19 02:13:50;;;;;;;4.80;0.70;;;;;;;11.83;73.34;100133.44;5036579;28;20021;-67
2023/03/19 02:16:16;;;;;;;4.90;0.80;;;;;;;11.84;73.23;100135.19;5036347;28;20147;-66
2023/03/19 02:18:43;;;;;;;4.18;0.77;;;;;;;11.84;72.95;100124.63;5036299;28;20021;-66
2023/03/19 02:21:13;;;;;;;4.85;0.85;;;;;;;11.85;73.04;100123.75;5036318;28;20393;-66
2023/03/19 02:23:48;;;;;;;4.18;1.10;;;;;;;11.80;73.55;100130.84;5036399;28;20025;-66
2023/03/19 02:26:16;;;;;;;4.40;0.70;;;;;;;11.76;73.53;100133.53;5036277;28;20025;-66
2023/03/19 02:28:45;;;;;;;4.87;0.80;;;;;;;11.74;73.78;100139.69;5036352;28;20030;-65
2023/03/19 02:31:11;;;;;;;6.45;0.95;;;;;;;11.70;73.56;100138.88;5036368;28;20458;-66
2023/03/19 02:33:37;;;;;;;7.97;0.90;;;;;;;11.68;73.77;100130.06;5036117;28;20033;-66
2023/03/19 02:36:05;;;;;;;5.53;0.80;;;;;;;11.66;73.72;100129.22;5035240;28;20057;-66
2023/03/19 02:38:33;;;;;;;6.17;1.17;;;;;;;11.65;74.03;100129.25;5036213;28;20048;-66
2023/03/19 02:41:07;;;;;;;4.82;0.70;;;;;;;11.64;73.86;100133.63;5036326;28;20068;-66
2023/03/19 02:43:34;;;;;;;3.35;0.80;;;;;;;11.63;74.06;100127.50;5036463;28;20030;-66
2023/03/19 02:46:01;;;;;;;6.00;0.75;;;;;;;11.63;74.02;100126.63;5036503;28;20025;-66
2023/03/19 02:48:27;;;;;;;7.63;1.23;;;;;;;11.62;73.87;100132.78;5036090;28;20482;-66
2023/03/19 02:50:53;;;;;;;3.70;0.77;;;;;;;11.64;73.62;100128.38;5036136;28;20078;-66
2023/03/19 02:53:18;;;;;;;4.88;0.77;;;;;;;11.66;73.74;100126.59;5036034;28;20026;-66
2023/03/19 02:55:44;;;;;;;4.70;0.80;;;;;;;11.65;73.71;100132.75;5036217;28;20022;-66
2023/03/19 02:58:10;;;;;;;3.78;0.88;;;;;;;11.66;73.97;100134.50;5040768;28;20014;-66
2023/03/19 03:00:36;;;;;;;4.73;0.80;;;;;;;11.70;74.16;100138.88;5052315;28;20031;-66
2023/03/19 03:03:05;;;;;;;4.40;0.90;;;;;;;11.70;73.91;100133.59;5055854;28;20028;-66
2023/03/19 03:05:31;;;;;;;4.05;0.68;;;;;;;11.70;73.80;100136.25;5037753;28;20033;-66
2023/03/19 03:07:56;;;;;;;3.80;0.70;;;;;;;11.71;73.96;100135.34;5036039;28;20112;-66
2023/03/19 03:10:22;;;;;;;5.70;0.98;;;;;;;11.71;74.15;100137.97;5035804;28;20061;-66
2023/03/19 03:12:48;;;;;;;5.40;0.70;;;;;;;11.69;73.98;100142.38;5036091;28;20026;-66
2023/03/19 03:15:13;;;;;;;3.67;0.77;;;;;;;11.68;73.82;100140.63;5036329;28;20021;-66
2023/03/19 03:17:40;;;;;;;3.40;0.90;;;;;;;11.69;74.29;100142.38;5036975;28;20057;-66
2023/03/19 03:20:08;;;;;;;3.97;0.77;;;;;;;11.68;74.13;100135.34;5039547;28;20077;-66
2023/03/19 03:22:34;;;;;;;5.03;0.80;;;;;;;11.67;74.29;100141.53;5038254;28;20029;-66
2023/03/19 03:25:00;;;;;;;4.33;0.63;;;;;;;11.61;74.81;100133.69;5039651;28;20389;-66
2023/03/19 03:27:25;;;;;;;4.05;0.68;;;;;;;11.57;74.89;100138.09;5039433;28;20094;-66
2023/03/19 03:29:51;;;;;;;4.57;0.60;;;;;;;11.55;74.45;100139.03;5039182;28;20025;-66
2023/03/19 03:32:16;;;;;;;4.18;0.60;;;;;;;11.54;74.99;100143.41;5039421;28;20051;-66
2023/03/19 03:34:42;;;;;;;4.57;0.60;;;;;;;11.54;74.73;100142.56;5039210;28;20519;-66
2023/03/19 03:37:08;;;;;;;3.70;0.60;;;;;;;11.57;74.53;100143.38;5039582;28;20100;-66
2023/03/19 03:39:33;;;;;;;6.50;0.82;;;;;;;11.60;74.78;100147.75;5039355;28;20029;-66
2023/03/19 03:41:59;;;;;;;5.67;0.90;;;;;;;11.59;74.94;100140.75;5039004;28;20018;-66
2023/03/19 03:44:25;;;;;;;3.93;0.80;;;;;;;11.58;74.73;100141.63;5039026;28;20561;-66
2023/03/19 03:46:50;;;;;;;3.75;0.70;;;;;;;11.60;74.74;100147.75;5038859;28;20048;-66
2023/03/19 03:49:16;;;;;;;3.83;0.73;;;;;;;11.61;74.43;100152.13;5038643;28;20021;-66
2023/03/19 03:51:41;;;;;;;6.40;0.70;;;;;;;11.59;74.80;100148.66;5038842;28;20022;-66
2023/03/19 03:54:07;;;;;;;3.23;0.70;;;;;;;11.57;74.39;100158.34;5040052;28;20029;-66
2023/03/19 03:56:32;;;;;;;5.93;0.70;;;;;;;11.53;74.92;100156.63;5038674;28;20719;-66
2023/03/19 03:58:58;;;;;;;4.85;0.60;;;;;;;11.49;75.19;100163.69;5039876;28;20025;-66
2023/03/19 04:01:23;;;;;;;3.00;0.50;;;;;;;11.44;75.29;100163.72;5055951;28;20021;-66
2023/03/19 04:03:49;;;;;;;5.20;0.60;;;;;;;11.42;75.00;100162.84;5055115;28;20087;-66
2023/03/19 04:06:17;;;;;;;4.85;0.70;;;;;;;11.42;75.38;100175.19;5038352;28;20060;-66
2023/03/19 04:08:42;;;;;;;5.33;0.80;;;;;;;11.39;75.18;100170.81;5038529;28;20108;-66
2023/03/19 04:11:08;;;;;;;5.80;0.80;;;;;;;11.40;75.39;100172.56;5038238;28;20102;-65
2023/03/19 04:13:35;;;;;;;5.83;0.50;;;;;;;11.42;75.41;100176.03;5038590;28;20401;-66
2023/03/19 04:16:09;;;;;;;6.50;0.70;;;;;;;11.45;75.41;100176.03;5038561;28;20478;-66
2023/03/19 04:18:35;;;;;;;5.15;0.50;;;;;;;11.47;75.50;100176.91;5038331;28;20029;-66
2023/03/19 04:21:03;;;;;;;3.25;0.70;;;;;;;11.47;75.17;100174.25;5038475;28;20018;-66
2023/03/19 04:23:28;;;;;;;4.97;1.00;;;;;;;11.46;75.32;100183.06;5038540;28;20033;-66
2023/03/19 04:25:58;;;;;;;5.28;1.00;;;;;;;11.46;75.58;100185.69;5038438;28;20035;-66
2023/03/19 04:28:24;;;;;;;4.20;0.90;;;;;;;11.48;74.63;100191.84;5038559;28;20470;-66
2023/03/19 04:30:49;;;;;;;4.83;0.80;;;;;;;11.51;75.17;100188.28;5037947;28;20092;-66
2023/03/19 04:33:15;;;;;;;6.23;0.70;;;;;;;11.52;75.05;100199.72;5038325;28;20026;-66
2023/03/19 04:35:40;;;;;;;4.53;0.60;;;;;;;11.52;75.19;100197.06;5038159;28;20025;-66
2023/03/19 04:38:06;;;;;;;3.43;0.60;;;;;;;11.53;74.84;100198.81;5038382;28;20025;-66
2023/03/19 04:40:31;;;;;;;4.45;0.75;;;;;;;11.51;75.31;100198.81;5038220;28;20013;-66
2023/03/19 04:42:57;;;;;;;6.30;0.73;;;;;;;11.46;75.21;100196.25;5037841;28;20113;-66
2023/03/19 04:45:22;;;;;;;4.13;0.60;;;;;;;11.46;75.18;100204.16;5038094;28;20029;-66
2023/03/19 04:47:48;;;;;;;5.63;0.60;;;;;;;11.48;74.99;100202.38;5036575;28;20260;-66
2023/03/19 04:50:14;;;;;;;5.70;0.60;;;;;;;11.46;74.85;100203.28;5039136;28;20027;-66
2023/03/19 04:52:39;;;;;;;5.07;0.80;;;;;;;11.44;75.35;100208.53;5048696;28;20116;-66
2023/03/19 04:55:06;;;;;;;3.77;0.60;;;;;;;11.45;75.11;100212.97;5051155;28;20049;-66
2023/03/19 04:57:32;;;;;;;4.72;0.50;;;;;;;11.45;75.23;100218.22;5038194;28;20104;-66
2023/03/19 04:59:57;;;;;;;7.00;0.80;;;;;;;11.47;75.09;100218.19;5043194;28;20071;-66
2023/03/19 05:02:23;;;;;;;5.32;0.57;;;;;;;11.47;75.02;100229.63;5057809;28;20112;-66
2023/03/19 05:04:48;;;;;;;3.53;0.40;;;;;;;11.43;75.03;100222.63;5045889;28;20075;-66
2023/03/19 05:07:14;;;;;;;3.73;0.50;;;;;;;11.41;75.29;100232.31;5037872;28;20108;-66
2023/03/19 05:09:41;;;;;;;3.90;0.65;;;;;;;11.40;75.39;100230.56;5037313;28;20034;-66
2023/03/19 05:12:07;;;;;;;5.77;0.70;;;;;;;11.37;75.23;100230.59;5037949;28;20044;-66
2023/03/19 05:14:33;;;;;;;7.00;1.30;;;;;;;11.36;75.27;100227.97;5036220;28;20041;-66
2023/03/19 05:16:58;;;;;;;9.80;2.37;;;;;;;11.33;75.75;100234.13;5037737;28;20029;-66
2023/03/19 05:19:24;;;;;;;8.73;1.40;;;;;;;11.31;75.39;100238.53;5037331;28;20021;-67
2023/03/19 05:21:49;;;;;;;6.30;1.17;;;;;;;11.30;75.61;100242.06;5037565;28;20477;-66
2023/03/19 05:24:15;;;;;;;5.23;1.30;;;;;;;11.32;75.95;100248.22;5037429;28;20033;-66
2023/03/19 05:26:40;;;;;;;4.77;0.90;;;;;;;11.33;75.82;100244.69;5037565;28;20031;-66
2023/03/19 05:29:09;;;;;;;5.70;1.03;;;;;;;11.34;75.70;100246.44;5037361;28;20259;-66
2023/03/19 05:31:35;;;;;;;5.20;1.05;;;;;;;11.36;75.50;100249.94;5069173;28;20022;-67
2023/03/19 05:34:01;;;;;;;7.13;1.20;;;;;;;11.38;75.22;100256.06;5037098;28;20146;-66
2023/03/19 05:36:27;;;;;;;5.55;2.05;;;;;;;11.37;75.59;100249.03;5037242;28;20065;-66
2023/03/19 05:38:52;;;;;;;7.77;1.73;;;;;;;11.37;75.29;100253.44;5037356;28;20391;-66
2023/03/19 05:41:17;;;;;;;5.87;1.33;;;;;;;11.36;75.72;100256.97;5036653;28;20025;-66
2023/03/19 05:43:43;;;;;;;5.40;1.20;;;;;;;11.39;75.25;100254.31;5037197;28;20045;-66
2023/03/19 05:46:08;;;;;;;6.37;0.77;;;;;;;11.38;75.56;100256.06;5036929;28;20120;-66
2023/03/19 05:48:33;;;;;;;4.47;0.87;;;;;;;11.36;75.32;100260.47;5055612;28;20485;-66
2023/03/19 05:50:59;;;;;;;4.93;1.03;;;;;;;11.34;75.76;100267.53;5040576;28;20043;-66
2023/03/19 05:53:24;;;;;;;3.67;0.90;;;;;;;11.33;75.65;100268.41;5036902;28;20052;-66
2023/03/19 05:55:50;;;;;;;4.57;0.75;;;;;;;11.33;75.79;100265.78;5036981;28;20026;-66
2023/03/19 05:58:15;;;;;;;4.47;0.73;;;;;;;11.35;75.89;100269.28;5037006;28;20036;-66
2023/03/19 06:00:41;;;;;;;4.50;0.70;;;;;;;11.33;75.75;100276.31;5048124;28;20044;-66
2023/03/19 06:03:07;;;;;;;4.60;0.68;;;;;;;11.34;75.44;100283.34;5056627;28;20074;-66
2023/03/19 06:05:33;;;;;;;5.30;0.70;;;;;;;11.37;75.23;100282.44;5037947;28;20029;-66
2023/03/19 06:07:58;;;;;;;6.13;0.68;;;;;;;11.38;75.36;100287.69;5036762;28;20030;-66
2023/03/19 06:10:24;;;;;;;3.43;0.53;;;;;;;11.36;75.33;100292.09;5036364;28;20044;-66
2023/03/19 06:12:50;;;;;;;3.53;0.50;;;;;;;11.35;75.25;100298.28;5036810;28;20060;-66
2023/03/19 06:15:15;;;;;;;4.78;0.73;;;;;;;11.35;75.58;100298.28;5037035;28;20021;-66
2023/03/19 06:17:43;;;;;;;3.83;0.50;;;;;;;11.34;75.47;100299.16;5036454;28;20112;-66
2023/03/19 06:20:10;;;;;;;4.03;0.60;;;;;;;11.34;75.57;100307.06;5036854;28;20010;-66
2023/03/19 06:22:35;;;;;;;3.78;0.60;;;;;;;11.36;75.44;100302.66;5036728;28;20104;-66
2023/03/19 06:25:01;;;;;;;3.97;0.60;;;;;;;11.37;75.51;100317.59;5036692;28;20057;-67
2023/03/19 06:27:27;;;;;;;6.18;0.68;;;;;;;11.39;75.33;100321.09;5036657;28;20026;-66
2023/03/19 06:29:52;;;;;;;4.23;0.77;;;;;;;11.43;75.33;100319.31;5036473;28;20026;-66
2023/03/19 06:32:17;;;;;;;4.45;0.50;;;;;;;11.46;75.53;100320.19;5036407;28;20032;-66
2023/03/19 06:34:43;;;;;;;3.53;0.60;;;;;;;11.45;75.34;100318.44;5036591;28;20087;-66
2023/03/19 06:37:08;;;;;;;4.43;0.60;;;;;;;11.46;75.39;100314.91;5036455;28;20047;-66
2023/03/19 06:39:34;;;;;;;4.17;0.80;;;;;;;11.51;75.48;100321.91;5035105;28;20550;-66
2023/03/19 06:41:59;;;;;;;5.60;0.60;;;;;;;11.54;75.46;100321.88;5036310;28;20080;-66
2023/03/19 06:44:25;;;;;;;4.45;0.70;;;;;;;11.59;75.78;100330.63;5048281;28;20025;-66
2023/03/19 06:46:50;;;;;;;4.20;0.60;;;;;;;11.62;75.45;100325.31;5056314;28;20033;-66
2023/03/19 06:49:16;;;;;;;3.20;0.60;;;;;;;11.69;75.44;100342.00;5054123;28;20033;-66
2023/03/19 06:51:41;;;;;;;3.88;0.60;;;;;;;11.75;75.06;100340.19;5036335;28;20034;-66
2023/03/19 06:54:06;;;;;;;5.50;0.60;;;;;;;11.78;75.12;100336.63;5039654;28;20065;-66
2023/03/19 06:56:32;;;;;;;3.30;0.70;;;;;;;11.81;75.25;100341.03;5039964;28;20371;-67
2023/03/19 06:58:57;;;;;;;3.73;1.03;;;;;;;11.81;75.67;100341.03;5041651;28;20021;-66
2023/03/19 07:01:23;;;;;;;3.30;0.70;;;;;;;11.78;75.52;100348.06;5056790;28;20017;-66
2023/03/19 07:03:48;;;;;;;2.33;0.50;;;;;;;11.77;76.04;100351.59;5056693;28;20299;-66
2023/03/19 07:06:13;;;;;;;3.20;0.93;;;;;;;11.81;75.97;100346.28;5039989;28;20078;-67
2023/03/19 07:08:44;;;;;;;4.60;0.50;;;;;;;11.81;75.65;100348.94;5039993;28;20079;-67
2023/03/19 07:11:11;;;;;;;2.28;0.40;;;;;;;11.83;75.70;100360.34;5038273;28;20045;-67
2023/03/19 07:13:36;;;;;;;2.58;0.50;;;;;;;11.87;75.62;100356.78;5040235;28;20029;-67
2023/03/19 07:16:02;;;;;;;3.23;0.60;;;;;;;11.92;75.79;100366.44;5038621;28;20021;-67
2023/03/19 07:18:27;;;;;;;4.05;0.75;;;;;;;11.95;75.86;100360.28;5039594;28;20028;-67
2023/03/19 07:20:53;;;;;;;5.00;1.20;;;;;;;11.97;75.76;100369.03;5039683;28;20028;-66
2023/03/19 07:23:18;;;;;;;5.50;0.67;;;;;;;11.96;76.09;100369.03;5038516;28;20029;-66
2023/03/19 07:25:44;;;;;;;4.85;0.60;;;;;;;11.95;75.96;100376.09;5039803;28;20025;-66
2023/03/19 07:28:10;;;;;;;4.17;0.93;;;;;;;11.97;75.94;100373.44;5039634;28;20500;-66
2023/03/19 07:30:37;;;;;;;3.70;0.60;;;;;;;12.01;75.96;100378.72;5039296;28;20025;-67
2023/03/19 07:33:02;;;;;;;5.40;0.57;;;;;;;12.03;76.27;100376.94;5038137;28;20026;-66
2023/03/19 07:35:27;;;;;;;4.00;0.55;;;;;;;12.10;75.93;100379.50;5039377;28;20032;-67
2023/03/19 07:37:53;;;;;;;3.93;0.47;;;;;;;12.11;75.73;100379.53;5039532;28;20508;-67
2023/03/19 07:40:18;;;;;;;2.57;0.50;;;;;;;12.12;75.94;100383.91;5044630;28;20025;-67
2023/03/19 07:42:44;;;;;;;4.07;0.47;;;;;;;12.13;75.56;100390.94;5039347;28;20093;-67
2023/03/19 07:45:09;;;;;;;3.55;0.43;;;;;;;12.17;75.76;100386.50;5039565;28;20032;-67
2023/03/19 07:47:35;;;;;;;4.50;0.60;;;;;;;12.21;75.90;100388.25;5039338;28;20029;-67
2023/03/19 07:50:00;;;;;;;3.50;0.57;;;;;;;12.22;76.03;100395.28;5039172;28;20113;-67
2023/03/19 07:52:26;;;;;;;2.40;0.47;;;;;;;12.25;75.76;100389.94;5039173;28;20029;-66
2023/03/19 07:54:52;;;;;;;3.93;0.43;;;;;;;12.30;75.66;100398.69;5038917;28;20318;-67
2023/03/19 07:57:18;;;;;;;2.70;0.50;;;;;;;12.35;75.38;100396.88;5039357;28;20481;-67
2023/03/19 07:59:44;;;;;;;2.72;0.20;;;;;;;12.42;75.31;100404.75;5043932;28;20473;-67
2023/03/19 08:02:12;;;;;;;4.30;0.43;;;;;;;12.43;75.46;100401.25;5059043;28;20045;-67
2023/03/19 08:04:38;;;;;;;1.95;0.30;;;;;;;12.46;75.50;100407.34;5048197;28;20028;-67
2023/03/19 08:07:04;;;;;;;2.22;0.32;;;;;;;12.48;75.21;100413.50;5038873;28;20036;-67
2023/03/19 08:09:29;;;;;;;2.47;0.30;;;;;;;12.47;75.04;100408.25;5038517;28;20049;-67
2023/03/19 08:11:55;;;;;;;2.10;0.30;;;;;;;12.48;75.35;100413.50;5038632;28;20021;-67
2023/03/19 08:14:21;;;;;;;3.37;0.30;;;;;;;12.51;75.32;100415.25;5038583;28;20037;-67
2023/03/19 08:16:47;;;;;;;2.08;0.30;;;;;;;12.56;75.33;100421.34;5038928;28;20032;-67
2023/03/19 08:19:13;;;;;;;3.00;0.30;;;;;;;12.61;74.93;100427.47;5038555;28;20031;-67
2023/03/19 08:21:38;;;;;;;2.30;0.40;;;;;;;12.65;75.18;100430.97;5038772;28;20114;-67
2023/03/19 08:24:04;;;;;;;4.27;0.30;;;;;;;12.64;75.00;100431.84;5038567;28;20585;-67
2023/03/19 08:26:31;;;;;;;2.58;0.38;;;;;;;12.63;74.95;100436.25;5037272;28;20025;-67
2023/03/19 08:28:57;;;;;;;3.08;0.30;;;;;;;12.60;74.88;100438.91;5037077;28;20048;-67
2023/03/19 08:31:23;;;;;;;1.93;0.40;;;;;;;12.65;74.75;100446.81;5038245;28;20026;-67
2023/03/19 08:33:48;;;;;;;1.90;0.40;;;;;;;12.70;74.73;100449.41;5038321;28;20393;-67
2023/03/19 08:36:14;;;;;;;2.77;0.40;;;;;;;12.72;74.10;100450.28;5038353;28;20268;-67
2023/03/19 08:38:41;;;;;;;2.50;0.30;;;;;;;12.73;74.35;100439.66;5054690;28;20056;-67
2023/03/19 08:41:07;;;;;;;2.90;0.35;;;;;;;12.76;74.46;100446.69;5051798;28;20023;-67
2023/03/19 08:43:35;;;;;;;2.80;0.30;;;;;;;12.83;74.68;100445.72;5038283;28;20055;-67
2023/03/19 08:46:01;;;;;;;3.47;0.30;;;;;;;12.87;74.39;100447.44;5038074;28;20032;-67
2023/03/19 08:48:27;;;;;;;3.33;0.30;;;;;;;12.94;74.44;100453.56;5037924;28;20037;-67
2023/03/19 08:50:54;;;;;;;2.47;0.30;;;;;;;13.03;74.18;100461.41;5038105;28;20101;-67
2023/03/19 08:53:20;;;;;;;3.10;0.40;;;;;;;13.13;74.11;100459.50;5037758;28;20045;-67
2023/03/19 08:55:57;;;;;;;4.20;0.50;;;;;;;13.21;74.00;100462.06;5038066;28;20040;-67
2023/03/19 08:58:23;;;;;;;3.47;0.40;;;;;;;13.21;73.72;100468.25;5033877;28;20021;-67
2023/03/19 09:00:49;;;;;;;3.30;0.52;;;;;;;13.19;73.89;100475.31;5037362;28;20028;-67
2023/03/19 09:03:16;;;;;;;3.33;0.47;;;;;;;13.15;73.84;100478.91;5056215;28;20104;-67
2023/03/19 09:05:42;;;;;;;2.58;0.40;;;;;;;13.05;73.78;100480.75;5038700;28;20056;-67
2023/03/19 09:08:07;;;;;;;4.07;0.50;;;;;;;13.00;73.89;100479.91;5037559;28;20060;-67
2023/03/19 09:10:33;;;;;;;3.70;0.40;;;;;;;12.98;74.01;100484.34;5037558;28;20057;-67
2023/03/19 09:12:59;;;;;;;4.17;0.40;;;;;;;13.04;74.19;100486.06;5037204;28;20025;-67
2023/03/19 09:15:24;;;;;;;3.72;0.43;;;;;;;13.17;74.31;100484.16;5040333;28;20026;-67
2023/03/19 09:17:50;;;;;;;2.17;0.37;;;;;;;13.44;73.65;100488.28;5042591;28;20515;-67
2023/03/19 09:20:15;;;;;;;2.85;0.40;;;;;;;13.66;73.31;100490.66;5051730;28;20017;-67
2023/03/19 09:22:41;;;;;;;3.30;0.47;;;;;;;13.81;72.52;100488.69;5042335;28;20438;-67
2023/03/19 09:25:07;;;;;;;2.37;0.50;;;;;;;14.00;72.71;100486.66;5048054;28;20038;-67
2023/03/19 09:27:32;;;;;;;2.72;0.30;;;;;;;14.28;71.59;100484.44;5037643;28;20049;-67
2023/03/19 09:29:58;;;;;;;4.30;0.40;;;;;;;14.51;70.76;100485.84;5037807;28;20053;-66
2023/03/19 09:32:24;;;;;;;2.90;0.82;;;;;;;14.68;69.79;100477.59;5043178;28;20107;-67
2023/03/19 09:34:49;;;;;;;3.87;0.50;;;;;;;14.77;69.22;100482.78;5057321;28;20507;-68
2023/03/19 09:37:14;;;;;;;4.07;0.30;;;;;;;14.95;68.36;100485.13;5057205;28;20021;-67
2023/03/19 09:39:40;;;;;;;3.33;0.30;;;;;;;15.07;68.16;100480.47;5056959;28;20017;-67
2023/03/19 09:42:27;;;;;;;2.83;0.30;;;;;;;15.19;68.22;100473.16;5042189;28;20033;-66
2023/03/19 09:44:52;;;;;;;2.42;0.50;;;;;;;15.19;68.01;100478.47;5033678;28;20111;-67
2023/03/19 09:47:35;;;;;;;3.27;0.50;;;;;;;15.13;68.04;100484.78;5030727;28;20082;-67
2023/03/19 09:50:09;;;;;;;2.72;0.40;;;;;;;15.07;68.22;100479.56;5037594;28;20033;-67
2023/03/19 09:52:47;;;;;;;3.13;0.40;;;;;;;15.25;68.11;100480.13;5035236;28;20104;-67
2023/03/19 09:55:19;;;;;;;3.03;0.30;;;;;;;15.50;67.44;100473.41;5034121;28;20485;-66
2023/03/19 09:57:46;;;;;;;4.67;0.43;;;;;;;15.77;67.24;100468.38;5037658;28;20515;-67
2023/03/19 10:00:22;;;;;;;2.70;0.30;;;;;;;16.05;67.03;100462.50;5030670;28;20025;-66
2023/03/19 10:03:11;;;;;;;2.25;0.30;;;;;;;16.39;66.17;100458.13;5035332;28;20052;-66
2023/03/19 10:05:58;;;;;;;3.65;0.38;;;;;;;16.49;65.18;100470.28;5028261;28;20025;-66
2023/03/19 10:08:26;;;;;;;2.13;0.30;;;;;;;16.26;64.72;100468.19;5031983;28;20033;-65
2023/03/19 10:11:06;;;;;;;3.13;0.30;;;;;;;15.98;64.62;100471.50;5027637;28;20037;-67
2023/03/19 10:13:46;;;;;;;2.35;0.30;;;;;;;15.89;66.54;100464.63;5036533;28;20044;-66
2023/03/19 10:16:20;;;;;;;3.10;0.47;;;;;;;15.81;66.47;100466.56;5036181;28;20541;-66
2023/03/19 10:18:51;;;;;;;1.67;0.30;;;;;;;15.72;67.28;100464.97;5035039;28;20032;-66
2023/03/19 10:21:27;;;;;;;4.18;0.47;;;;;;;15.57;67.12;100468.84;5036599;28;20043;-66
2023/03/19 10:23:55;;;;;;;4.37;0.50;;;;;;;15.37;67.42;100471.94;5031869;28;20033;-66
2023/03/19 10:26:28;;;;;;;2.15;0.38;;;;;;;15.20;67.75;100481.09;5030339;28;20030;-66
2023/03/19 10:29:09;;;;;;;3.42;0.50;;;;;;;15.06;68.25;100475.16;5035308;28;20451;-66
2023/03/19 10:31:34;;;;;;;5.35;0.70;;;;;;;15.11;68.32;100475.97;5044879;28;20029;-66
2023/03/19 10:34:31;;;;;;;3.70;0.50;;;;;;;15.45;68.90;100469.97;5049229;28;20120;-66
2023/03/19 10:37:03;;;;;;;4.53;0.45;;;;;;;15.76;67.58;100464.00;5050158;28;20041;-66
2023/03/19 10:39:31;;;;;;;2.08;0.45;;;;;;;15.92;66.97;100469.00;5048596;28;20025;-66
2023/03/19 10:42:20;;;;;;;2.15;0.30;;;;;;;15.93;65.48;100471.63;5048835;28;20059;-66
2023/03/19 10:44:52;;;;;;;2.63;0.50;;;;;;;16.03;64.71;100466.09;5034014;28;20021;-66
2023/03/19 10:47:21;;;;;;;1.53;0.30;;;;;;;16.08;63.96;100472.16;5039255;28;20074;-65
2023/03/19 10:49:49;;;;;;;3.05;0.30;;;;;;;16.25;63.43;100474.41;5040233;28;20386;-65
2023/03/19 10:52:27;;;;;;;2.00;0.30;;;;;;;16.26;62.93;100484.13;5037203;28;20026;-66
2023/03/19 10:55:02;;;;;;;4.35;0.30;;;;;;;15.89;63.94;100485.88;5040543;28;20049;-66
2023/03/19 10:57:30;;;;;;;2.25;0.30;;;;;;;15.55;65.67;100486.59;5039079;28;20117;-63
2023/03/19 11:00:03;;;;;;;1.57;0.30;;;;;;;15.28;67.06;100488.00;5039698;28;20120;-64
2023/03/19 11:02:30;;;;;;;3.08;0.38;;;;;;;15.13;67.37;100482.13;5040127;28;20550;-64
2023/03/19 11:05:21;;;;;;;2.13;0.30;;;;;;;14.95;67.87;100495.72;5039866;28;20025;-63
2023/03/19 11:08:02;;;;;;;2.88;0.40;;;;;;;14.92;68.42;100494.88;5043952;28;20029;-64
2023/03/19 11:10:30;;;;;;;2.85;0.50;;;;;;;15.02;68.71;100492.94;5048454;28;20049;-64
2023/03/19 11:13:04;;;;;;;6.43;0.60;;;;;;;15.23;68.09;100489.91;5046602;28;20053;-64
2023/03/19 11:15:36;;;;;;;3.72;0.40;;;;;;;15.52;68.02;100488.41;5052498;28;20017;-63
2023/03/19 11:18:37;;;;;;;3.38;0.40;;;;;;;15.80;66.62;100478.09;5042064;28;20030;-63
2023/03/19 11:21:20;;;;;;;2.20;0.30;;;;;;;16.06;65.72;100481.97;5046890;28;20010;-65
2023/03/19 11:23:51;;;;;;;3.50;0.60;;;;;;;16.30;64.88;100472.53;5046458;28;20444;-64
2023/03/19 11:26:20;;;;;;;2.07;0.30;;;;;;;16.52;63.96;100466.69;5049281;28;20029;-65